Time;durP1;ratioP1;P1;durP2;ratioP2;P2;SDS_P1;SDS_P2;PMS_P1;PMS_P2;Temp;Humidity;BMP_temperature;BMP_pressure;BME280_temperature;BME280_humidity;BME280_pressure;Samples;Min_cycle;Max_cycle;Signal;HPM_P1;HPM_P2
2022/11/01 00:00:11;;;;;;;9.85;1.25;;;13.20;92.30;;;;;;5079457;28;20113;-77
2022/11/01 00:02:37;;;;;;;6.32;1.13;;;13.20;92.40;;;;;;5077987;28;20378;-77
2022/11/01 00:05:03;;;;;;;7.68;1.10;;;13.20;92.40;;;;;;5077335;28;20024;-77
2022/11/01 00:07:28;;;;;;;6.55;1.40;;;13.20;92.10;;;;;;5074871;28;20380;-79
2022/11/01 00:09:54;;;;;;;6.78;1.23;;;13.20;92.20;;;;;;5078149;28;20553;-79
2022/11/01 00:12:22;;;;;;;6.88;1.27;;;13.20;92.40;;;;;;5078247;28;20021;-88
2022/11/01 00:14:53;;;;;;;11.13;1.70;;;13.20;92.20;;;;;;5074899;28;20028;-91
2022/11/01 00:17:31;;;;;;;7.70;1.33;;;13.10;92.30;;;;;;5083637;28;20182;-90
2022/11/01 00:19:56;;;;;;;6.90;1.20;;;13.10;92.30;;;;;;5080238;28;20031;-90
2022/11/01 00:22:22;;;;;;;7.43;1.90;;;13.10;92.40;;;;;;5069071;28;20017;-90
2022/11/01 00:24:50;;;;;;;8.20;1.30;;;13.10;92.40;;;;;;5070572;28;20025;-88
2022/11/01 00:27:25;;;;;;;6.82;1.20;;;13.00;92.40;;;;;;5076286;28;20036;-88
2022/11/01 00:29:50;;;;;;;9.75;1.30;;;13.00;92.50;;;;;;5078768;28;20104;-88
2022/11/01 00:32:23;;;;;;;5.88;1.20;;;13.00;92.50;;;;;;5070438;28;20048;-89
2022/11/01 00:34:53;;;;;;;8.90;1.33;;;13.00;92.50;;;;;;5071981;28;20020;-89
2022/11/01 00:37:19;;;;;;;8.57;1.50;;;13.00;92.50;;;;;;5078392;28;20025;-89
2022/11/01 00:39:50;;;;;;;8.65;1.55;;;13.00;92.60;;;;;;5065013;28;20112;-89
2022/11/01 00:42:16;;;;;;;7.75;1.50;;;13.00;92.60;;;;;;5078588;28;20551;-88
2022/11/01 00:44:41;;;;;;;8.60;1.60;;;12.90;92.50;;;;;;5078357;28;20105;-84
2022/11/01 00:47:30;;;;;;;9.63;1.55;;;12.90;92.50;;;;;;5077756;28;20112;-85
2022/11/01 00:50:00;;;;;;;10.15;1.55;;;13.00;92.70;;;;;;5077380;28;20416;-84
2022/11/01 00:52:31;;;;;;;10.60;1.55;;;12.90;92.40;;;;;;5077851;28;20032;-84
2022/11/01 00:54:57;;;;;;;10.70;1.58;;;12.90;92.60;;;;;;5077634;28;20032;-85
2022/11/01 00:57:23;;;;;;;11.48;1.67;;;12.90;92.60;;;;;;5076693;28;20566;-85
2022/11/01 00:59:48;;;;;;;11.35;1.38;;;12.80;92.60;;;;;;5063610;28;20028;-85
2022/11/01 01:02:16;;;;;;;5.95;1.38;;;12.90;92.60;;;;;;5077089;28;20024;-84
2022/11/01 01:19:32;;;;;;;7.40;1.27;;;12.80;92.50;;;;;;5595591;23;20049;-83
2022/11/01 02:00:58;;;;;;;7.35;1.20;;;12.80;91.90;;;;;;5136025;27;20400;-91
2022/11/01 02:03:29;;;;;;;7.10;1.27;;;12.80;91.60;;;;;;5126944;28;20028;-92
2022/11/01 02:06:13;;;;;;;11.73;1.40;;;12.80;91.80;;;;;;5117322;28;20020;-91
2022/11/01 02:08:50;;;;;;;10.63;1.60;;;12.80;91.50;;;;;;5135477;28;20047;-90
2022/11/01 02:11:17;;;;;;;4.93;1.15;;;12.80;92.10;;;;;;5100928;28;20434;-85
2022/11/01 02:13:43;;;;;;;10.30;1.58;;;12.80;91.50;;;;;;5114678;28;20024;-85
2022/11/01 02:16:12;;;;;;;8.20;1.30;;;12.70;91.50;;;;;;5113126;28;20027;-85
2022/11/01 02:18:52;;;;;;;7.15;1.33;;;12.70;91.60;;;;;;5113640;28;20035;-85
2022/11/01 02:21:27;;;;;;;6.70;1.52;;;12.70;91.70;;;;;;5114869;28;20038;-85
2022/11/01 02:43:38;;;;;;;8.95;1.30;;;12.60;91.50;;;;;;5434984;23;20057;-85
2022/11/01 02:57:29;;;;;;;8.13;1.08;;;12.50;91.80;;;;;;4915680;29;20035;-87
2022/11/01 03:00:02;;;;;;;7.45;1.52;;;12.50;91.90;;;;;;4921617;28;20048;-86
2022/11/01 03:02:40;;;;;;;8.13;1.27;;;12.50;91.80;;;;;;5000650;28;20023;-87
2022/11/01 03:05:14;;;;;;;9.27;1.50;;;12.50;91.80;;;;;;5000689;28;20548;-86
2022/11/01 03:07:44;;;;;;;7.97;1.67;;;12.50;91.80;;;;;;4982814;28;20026;-86
2022/11/01 03:10:10;;;;;;;8.75;1.50;;;12.40;91.80;;;;;;4983502;28;20503;-87
2022/11/01 03:12:47;;;;;;;6.35;1.40;;;12.40;91.80;;;;;;5000642;28;20022;-87
2022/11/01 03:15:27;;;;;;;10.85;1.58;;;12.40;92.00;;;;;;4982931;28;20561;-86
2022/11/01 03:25:48;;;;;;;;;;;;;;;;;;;;;
2022/11/01 03:27:59;;;;;;;6.15;1.02;;;12.50;92.20;;;;;;4966028;28;20030;-88
2022/11/01 03:30:28;;;;;;;9.00;1.38;;;12.60;92.10;;;;;;4982569;28;20041;-87
2022/11/01 03:32:56;;;;;;;9.85;1.50;;;12.60;92.10;;;;;;4983116;28;20029;-87
2022/11/01 03:35:31;;;;;;;8.25;1.00;;;12.60;92.00;;;;;;4965601;28;20635;-87
2022/11/01 03:38:05;;;;;;;5.03;1.15;;;12.60;91.90;;;;;;4977394;28;20026;-85
2022/11/01 03:40:33;;;;;;;6.22;1.20;;;12.60;92.00;;;;;;4966006;28;20033;-85
2022/11/01 03:43:03;;;;;;;7.45;1.10;;;12.60;92.00;;;;;;4975912;28;20056;-85
2022/11/01 03:45:31;;;;;;;6.60;1.05;;;12.60;92.00;;;;;;4982509;28;20022;-84
2022/11/01 03:59:23;;;;;;;7.55;1.25;;;12.50;92.10;;;;;;5021433;28;20053;-85
2022/11/01 04:01:49;;;;;;;7.60;1.20;;;12.50;92.00;;;;;;5010233;28;20029;-86
2022/11/01 04:22:38;;;;;;;9.23;1.20;;;12.40;92.40;;;;;;5039112;28;20043;-85
2022/11/01 04:25:04;;;;;;;6.22;1.20;;;12.40;92.60;;;;;;5015251;28;20018;-85
2022/11/01 04:27:30;;;;;;;9.10;1.30;;;12.50;92.60;;;;;;5020588;28;20029;-84
2022/11/01 04:29:55;;;;;;;6.60;1.08;;;12.40;92.60;;;;;;5038778;28;20060;-89
2022/11/01 04:32:31;;;;;;;5.15;1.10;;;12.50;92.70;;;;;;5007950;28;20033;-88
2022/11/01 04:35:00;;;;;;;8.90;1.27;;;12.50;92.70;;;;;;5007194;28;20030;-88
2022/11/01 04:37:32;;;;;;;12.45;1.58;;;12.50;92.70;;;;;;5001800;28;20018;-88
2022/11/01 04:39:58;;;;;;;8.80;1.33;;;12.50;92.70;;;;;;5007214;28;20069;-90
2022/11/01 04:42:26;;;;;;;6.53;0.98;;;12.50;92.80;;;;;;5012480;28;20433;-89
2022/11/01 04:45:19;;;;;;;7.40;1.10;;;12.50;92.80;;;;;;5014698;28;20449;-89
2022/11/01 04:47:51;;;;;;;9.05;1.15;;;12.50;92.80;;;;;;5031671;28;20129;-88
2022/11/01 04:50:29;;;;;;;8.85;1.17;;;12.50;92.90;;;;;;5008205;28;20033;-88
2022/11/01 04:52:56;;;;;;;8.00;1.30;;;12.60;92.90;;;;;;5005623;28;20049;-85
2022/11/01 04:55:22;;;;;;;5.93;1.00;;;12.60;93.00;;;;;;4997248;28;20146;-85
2022/11/01 04:57:50;;;;;;;10.48;1.50;;;12.60;93.00;;;;;;5004482;28;20049;-85
2022/11/01 05:00:15;;;;;;;6.60;1.33;;;12.60;93.00;;;;;;5009684;28;20513;-84
2022/11/01 05:02:41;;;;;;;10.88;1.30;;;12.60;93.10;;;;;;5014775;28;20010;-84
2022/11/01 05:05:09;;;;;;;8.27;0.90;;;12.60;93.10;;;;;;4999168;28;20022;-84
2022/11/01 05:07:35;;;;;;;8.85;1.30;;;12.60;93.00;;;;;;5013753;28;20026;-84
2022/11/01 05:10:01;;;;;;;7.47;1.13;;;12.60;93.40;;;;;;5015714;28;20032;-85
2022/11/01 05:12:27;;;;;;;8.15;1.55;;;12.70;93.10;;;;;;4998811;28;20023;-85
2022/11/01 05:14:53;;;;;;;7.07;1.30;;;12.60;93.00;;;;;;5002306;28;20025;-85
2022/11/01 05:17:18;;;;;;;13.40;1.63;;;12.60;93.00;;;;;;5004371;28;20420;-83
2022/11/01 05:19:44;;;;;;;6.82;1.13;;;12.60;93.00;;;;;;5002149;28;20017;-82
2022/11/01 05:22:10;;;;;;;6.30;1.55;;;12.60;93.00;;;;;;5000984;28;20483;-83
2022/11/01 05:24:36;;;;;;;6.00;1.35;;;12.60;93.00;;;;;;5007920;28;20499;-83
2022/11/01 05:27:01;;;;;;;11.02;1.20;;;12.60;93.10;;;;;;5010558;28;20024;-84
2022/11/01 05:29:27;;;;;;;6.35;1.33;;;12.60;93.00;;;;;;4999348;28;20029;-85
2022/11/01 05:31:53;;;;;;;7.55;1.15;;;12.50;93.10;;;;;;5015897;28;20019;-88
2022/11/01 05:34:22;;;;;;;7.53;1.13;;;12.50;93.10;;;;;;4996945;28;20014;-88
2022/11/01 05:36:48;;;;;;;6.05;1.02;;;12.50;93.10;;;;;;4998173;28;20022;-88
2022/11/01 06:10:44;;;;;;;8.13;1.10;;;12.30;93.60;;;;;;5135381;23;20070;-84
2022/11/01 06:13:10;;;;;;;6.15;1.20;;;12.30;93.70;;;;;;4957999;28;20030;-84
2022/11/01 06:15:36;;;;;;;7.15;1.17;;;12.40;93.80;;;;;;4948203;28;20029;-84
2022/11/01 06:18:02;;;;;;;10.73;1.25;;;12.40;93.90;;;;;;4952970;29;20023;-80
2022/11/01 06:20:30;;;;;;;7.57;1.20;;;12.30;93.90;;;;;;4973055;28;20023;-80
2022/11/01 06:22:56;;;;;;;7.63;0.98;;;12.30;93.90;;;;;;4977904;28;20030;-77
2022/11/01 06:25:22;;;;;;;8.38;1.23;;;12.30;94.00;;;;;;4978035;28;20034;-78
2022/11/01 06:27:48;;;;;;;9.43;1.05;;;12.30;94.10;;;;;;4977855;28;20098;-82
2022/11/01 06:30:14;;;;;;;6.72;1.20;;;12.30;94.10;;;;;;4960241;28;20559;-76
2022/11/01 06:33:44;;;;;;;7.70;1.20;;;12.30;94.20;;;;;;4978624;28;20424;-87
2022/11/01 06:36:14;;;;;;;8.55;1.15;;;12.40;94.10;;;;;;4929583;28;20035;-88
2022/11/01 06:38:40;;;;;;;6.68;1.35;;;12.40;94.30;;;;;;4971329;28;20030;-87
2022/11/01 06:45:29;;;;;;;9.00;1.40;;;12.40;94.30;;;;;;4884577;29;20068;-87
2022/11/01 07:02:46;;;;;;;9.95;1.02;;;12.40;94.10;;;;;;4649570;30;20171;-88
2022/11/01 07:05:14;;;;;;;6.47;1.00;;;12.40;94.30;;;;;;4636678;31;20048;-88
2022/11/01 07:36:03;;;;;;;9.65;1.20;;;12.40;94.70;;;;;;4856625;29;20100;-89
2022/11/01 07:38:37;;;;;;;7.57;1.23;;;12.40;94.70;;;;;;4906884;28;20035;-88
2022/11/01 07:41:08;;;;;;;8.30;1.30;;;12.40;95.00;;;;;;4952797;29;20262;-88
2022/11/01 07:43:37;;;;;;;8.43;1.30;;;12.40;95.00;;;;;;4956935;29;20061;-87
2022/11/01 07:46:15;;;;;;;8.05;1.13;;;12.40;95.10;;;;;;4931963;29;20032;-87
2022/11/01 07:48:52;;;;;;;7.45;0.95;;;12.50;95.10;;;;;;4951703;28;20380;-87
2022/11/01 07:51:29;;;;;;;10.23;1.50;;;12.50;95.10;;;;;;4960723;28;20030;-88
2022/11/01 07:53:57;;;;;;;8.77;1.35;;;12.50;95.20;;;;;;4944727;29;20024;-88
2022/11/01 07:56:23;;;;;;;9.82;1.52;;;12.60;95.20;;;;;;4958786;29;20411;-87
2022/11/01 07:58:52;;;;;;;5.40;1.20;;;12.60;95.20;;;;;;4979656;28;20026;-88
2022/11/01 08:01:20;;;;;;;10.77;1.38;;;12.70;95.20;;;;;;4950073;28;20027;-87
2022/11/01 08:03:54;;;;;;;7.93;1.20;;;12.70;95.30;;;;;;4952335;29;20028;-88
2022/11/01 08:13:16;;;;;;;7.50;1.17;;;12.90;95.30;;;;;;4894965;29;20044;-82
2022/11/01 08:15:43;;;;;;;9.65;1.58;;;13.00;95.30;;;;;;4957297;28;20130;-82
2022/11/01 08:18:09;;;;;;;14.57;1.95;;;13.00;95.40;;;;;;4952855;28;20034;-82
2022/11/01 08:20:34;;;;;;;9.88;1.67;;;13.10;95.40;;;;;;4978913;28;20046;-82
2022/11/01 08:23:00;;;;;;;10.32;1.20;;;13.20;95.40;;;;;;4999108;28;20033;-82
2022/11/01 08:25:26;;;;;;;11.00;1.42;;;13.20;95.40;;;;;;4999156;28;20027;-82
2022/11/01 08:27:52;;;;;;;8.50;1.70;;;13.30;95.40;;;;;;4998899;28;20061;-82
2022/11/01 08:30:19;;;;;;;11.02;1.65;;;13.30;95.40;;;;;;4981256;28;20034;-81
2022/11/01 08:32:45;;;;;;;6.05;1.40;;;13.40;95.40;;;;;;4998732;28;20027;-81
2022/11/01 08:35:11;;;;;;;11.20;1.70;;;13.40;95.40;;;;;;4981625;28;20034;-82
2022/11/01 08:37:46;;;;;;;13.00;2.00;;;13.50;95.40;;;;;;4981243;28;20026;-82
2022/11/01 08:40:11;;;;;;;10.18;1.60;;;13.50;95.30;;;;;;4982237;28;20030;-83
2022/11/01 08:42:37;;;;;;;10.32;1.38;;;13.60;95.30;;;;;;4987735;28;20414;-82
2022/11/01 08:45:03;;;;;;;5.47;1.17;;;13.60;95.30;;;;;;4961091;28;20037;-82
2022/11/01 08:58:42;;;;;;;6.38;1.30;;;13.80;95.30;;;;;;4839449;29;20059;-83
2022/11/01 09:01:11;;;;;;;8.88;1.35;;;13.90;95.40;;;;;;4926901;28;20062;-84
2022/11/01 09:03:39;;;;;;;15.25;1.52;;;13.90;95.30;;;;;;4978994;28;20034;-83
2022/11/01 09:06:04;;;;;;;9.20;1.65;;;14.00;95.40;;;;;;4965053;28;20026;-84
2022/11/01 09:20:27;;;;;;;8.48;1.88;;;14.30;95.40;;;;;;4928994;26;20059;-86
2022/11/01 09:30:11;;;;;;;5.55;1.23;;;14.60;95.50;;;;;;4940258;29;20047;-86
2022/11/01 09:32:36;;;;;;;11.18;1.38;;;14.70;95.30;;;;;;4923177;29;20076;-80
2022/11/01 09:35:02;;;;;;;5.03;1.10;;;14.80;95.20;;;;;;4942932;29;20428;-74
2022/11/01 09:37:28;;;;;;;6.82;1.30;;;14.90;95.30;;;;;;4946364;29;20106;-69
2022/11/01 09:39:54;;;;;;;9.57;1.67;;;15.00;95.10;;;;;;4942479;29;20501;-68
2022/11/01 09:42:22;;;;;;;11.88;1.63;;;15.10;95.00;;;;;;4940095;29;20032;-69
2022/11/01 09:44:51;;;;;;;5.30;1.38;;;15.10;94.70;;;;;;4939872;29;20110;-75
2022/11/01 09:47:22;;;;;;;9.07;1.70;;;15.10;94.70;;;;;;4941487;29;20032;-76
2022/11/01 09:50:10;;;;;;;10.57;1.60;;;15.10;94.80;;;;;;4940318;29;20089;-72
2022/11/01 09:52:36;;;;;;;9.23;1.45;;;15.20;94.80;;;;;;4939686;29;20488;-77
2022/11/01 09:55:02;;;;;;;12.45;1.50;;;15.20;94.70;;;;;;4939567;29;20023;-74
2022/11/01 09:57:38;;;;;;;7.43;1.52;;;15.20;94.80;;;;;;4922107;29;20159;-78
2022/11/01 10:00:15;;;;;;;6.45;1.25;;;15.30;94.80;;;;;;4939353;29;20038;-76
2022/11/01 10:02:59;;;;;;;10.43;1.73;;;15.40;94.80;;;;;;4939765;29;20030;-74
2022/11/01 10:05:39;;;;;;;9.85;1.65;;;15.40;94.60;;;;;;4939093;29;20063;-70
2022/11/01 10:08:26;;;;;;;8.05;1.50;;;15.50;94.70;;;;;;4939318;29;20424;-72
2022/11/01 10:10:52;;;;;;;11.18;1.55;;;15.60;94.50;;;;;;4923273;29;20050;-71
2022/11/01 10:13:36;;;;;;;8.27;2.42;;;15.60;94.50;;;;;;4943342;29;20035;-71
2022/11/01 10:16:08;;;;;;;18.35;5.65;;;15.70;94.30;;;;;;4925311;29;20031;-71
2022/11/01 10:19:03;;;;;;;10.30;3.15;;;15.80;94.10;;;;;;4943299;29;20083;-72
2022/11/01 10:21:41;;;;;;;7.60;2.28;;;15.80;93.90;;;;;;4943256;29;20059;-71
2022/11/01 10:24:31;;;;;;;11.98;1.88;;;15.80;93.10;;;;;;4943222;29;20155;-73
2022/11/01 10:27:37;;;;;;;7.47;1.70;;;15.80;93.40;;;;;;4942097;29;20091;-72
2022/11/01 10:30:14;;;;;;;9.38;2.63;;;15.80;93.00;;;;;;4925203;29;20131;-74
2022/11/01 10:32:48;;;;;;;12.27;2.67;;;15.80;93.10;;;;;;4943022;29;20024;-72
2022/11/01 10:35:21;;;;;;;12.70;2.63;;;15.90;93.00;;;;;;4953220;29;20070;-72
2022/11/01 10:37:56;;;;;;;10.13;2.95;;;15.90;93.00;;;;;;4949858;29;20024;-72
2022/11/01 10:40:32;;;;;;;11.77;2.50;;;15.90;92.80;;;;;;4943920;29;20122;-73
2022/11/01 10:42:59;;;;;;;8.98;2.45;;;15.90;92.80;;;;;;4950249;29;20103;-72
2022/11/01 10:45:25;;;;;;;13.25;2.40;;;15.90;92.60;;;;;;4949062;29;20078;-72
2022/11/01 10:47:56;;;;;;;6.97;1.40;;;16.00;92.60;;;;;;4932307;29;20076;-72
2022/11/01 10:50:24;;;;;;;9.98;1.60;;;16.00;92.30;;;;;;4934303;29;20485;-75
2022/11/01 10:53:02;;;;;;;10.68;1.85;;;16.10;92.30;;;;;;4929680;29;20038;-78
2022/11/01 10:55:33;;;;;;;10.75;1.55;;;16.10;92.30;;;;;;4950342;29;20083;-75
2022/11/01 10:58:13;;;;;;;7.82;1.13;;;16.10;92.00;;;;;;4929148;29;20114;-75
2022/11/01 11:00:41;;;;;;;11.32;1.50;;;16.00;92.20;;;;;;4929688;29;20035;-76
2022/11/01 11:03:29;;;;;;;11.55;1.98;;;16.10;92.20;;;;;;4951598;29;20441;-78
2022/11/01 11:05:59;;;;;;;10.20;1.63;;;16.10;92.60;;;;;;4950326;29;20051;-76
2022/11/01 11:08:25;;;;;;;9.13;1.70;;;16.20;92.40;;;;;;4933455;29;20488;-75
2022/11/01 11:10:51;;;;;;;10.90;1.85;;;16.30;92.30;;;;;;4950524;28;20373;-74
2022/11/01 11:13:22;;;;;;;9.00;1.60;;;16.30;92.10;;;;;;4950741;29;20079;-76
2022/11/01 11:15:59;;;;;;;10.50;1.75;;;16.40;92.10;;;;;;4933261;29;20419;-75
2022/11/01 11:18:29;;;;;;;8.07;1.33;;;16.40;92.00;;;;;;4949797;29;20043;-74
2022/11/01 11:20:58;;;;;;;7.28;1.23;;;16.40;91.80;;;;;;4951969;28;20034;-74
2022/11/01 11:23:29;;;;;;;8.32;1.52;;;16.50;91.90;;;;;;4950457;29;20019;-75
2022/11/01 11:26:04;;;;;;;10.45;1.63;;;16.50;91.80;;;;;;4932181;29;20560;-75
2022/11/01 11:28:33;;;;;;;11.10;1.80;;;16.50;91.60;;;;;;4941815;29;20035;-74
2022/11/01 11:31:34;;;;;;;7.78;1.40;;;16.50;91.60;;;;;;4924806;29;20072;-75
2022/11/01 11:34:05;;;;;;;7.45;1.45;;;16.50;91.90;;;;;;4883390;29;20508;-75
2022/11/01 11:36:37;;;;;;;8.07;1.60;;;16.50;91.30;;;;;;4931930;29;20035;-70
2022/11/01 11:39:03;;;;;;;8.68;1.67;;;16.60;91.60;;;;;;4945814;29;20112;-69
2022/11/01 11:41:35;;;;;;;9.30;1.58;;;16.60;91.30;;;;;;4941608;29;20489;-70
2022/11/01 11:44:02;;;;;;;13.15;1.90;;;16.50;91.40;;;;;;4941943;29;20027;-70
2022/11/01 11:46:27;;;;;;;10.18;1.35;;;16.50;92.30;;;;;;4941175;29;20040;-71
2022/11/01 11:48:55;;;;;;;11.02;1.60;;;16.50;94.40;;;;;;4941822;29;20027;-70
2022/11/01 11:51:23;;;;;;;8.80;1.65;;;16.40;92.20;;;;;;4924531;29;20095;-72
2022/11/01 11:54:21;;;;;;;8.40;1.90;;;16.30;91.70;;;;;;4924608;29;20023;-76
2022/11/01 11:56:51;;;;;;;12.90;1.80;;;16.30;92.00;;;;;;4929224;29;20040;-75
2022/11/01 11:59:27;;;;;;;9.63;1.80;;;16.20;92.00;;;;;;4941279;29;20027;-75
2022/11/01 12:02:12;;;;;;;10.98;1.55;;;16.20;92.40;;;;;;4922698;29;20027;-75
2022/11/01 12:04:46;;;;;;;10.43;1.60;;;16.20;93.80;;;;;;4940952;29;20028;-70
2022/11/01 12:07:22;;;;;;;12.32;1.95;;;16.30;94.10;;;;;;4941098;29;20065;-73
2022/11/01 12:09:48;;;;;;;9.88;1.67;;;16.10;92.80;;;;;;4940814;29;20530;-73
2022/11/01 12:12:16;;;;;;;7.10;1.60;;;16.20;93.20;;;;;;4940797;29;20102;-72
2022/11/01 12:14:42;;;;;;;7.78;1.60;;;16.10;92.60;;;;;;4940414;29;20023;-74
2022/11/01 12:17:32;;;;;;;12.73;2.03;;;16.20;92.60;;;;;;4940782;29;21170;-74
2022/11/01 12:20:11;;;;;;;9.38;1.50;;;16.30;92.90;;;;;;4921685;29;20047;-73
2022/11/01 12:22:41;;;;;;;8.27;1.67;;;16.40;92.80;;;;;;4921580;29;20024;-76
2022/11/01 12:25:13;;;;;;;9.40;2.10;;;16.60;92.60;;;;;;4904782;29;20119;-73
2022/11/01 12:27:46;;;;;;;11.30;1.65;;;16.60;92.10;;;;;;4921437;29;20062;-75
2022/11/01 12:30:20;;;;;;;8.73;1.90;;;16.60;92.10;;;;;;4921155;29;20107;-75
2022/11/01 12:33:06;;;;;;;12.35;2.13;;;16.60;91.90;;;;;;4921186;29;20024;-75
2022/11/01 12:35:40;;;;;;;9.50;1.52;;;16.60;91.90;;;;;;4921913;29;20115;-71
2022/11/01 12:38:18;;;;;;;9.45;1.83;;;16.70;91.90;;;;;;4930026;29;20035;-72
2022/11/01 12:40:47;;;;;;;11.57;1.80;;;16.70;91.70;;;;;;4920103;29;20371;-71
2022/11/01 12:43:35;;;;;;;11.02;1.92;;;16.70;91.80;;;;;;4919635;29;20067;-72
2022/11/01 12:46:15;;;;;;;6.97;1.48;;;16.70;91.90;;;;;;4920115;29;20059;-72
2022/11/01 12:48:49;;;;;;;10.30;1.63;;;16.70;91.70;;;;;;4932129;29;20024;-72
2022/11/01 12:51:31;;;;;;;10.13;1.75;;;16.70;91.60;;;;;;4920981;29;20024;-72
2022/11/01 12:54:13;;;;;;;9.55;1.63;;;16.70;91.50;;;;;;4920631;29;20038;-71
2022/11/01 12:56:39;;;;;;;13.00;1.80;;;16.70;91.40;;;;;;4919437;29;20062;-73
2022/11/01 12:59:07;;;;;;;11.73;1.80;;;16.70;91.40;;;;;;4915256;29;20036;-72
2022/11/01 13:02:18;;;;;;;13.23;1.85;;;16.70;91.40;;;;;;4920604;29;20039;-72
2022/11/01 13:05:00;;;;;;;7.85;1.48;;;16.80;91.80;;;;;;4895581;29;20040;-72
2022/11/01 13:07:57;;;;;;;7.45;1.63;;;16.70;91.70;;;;;;4920903;29;20064;-72
2022/11/01 13:10:49;;;;;;;12.02;1.80;;;16.70;92.40;;;;;;4921014;29;20032;-72
2022/11/01 13:13:43;;;;;;;9.55;2.08;;;16.80;92.40;;;;;;4913759;29;20123;-70
2022/11/01 13:16:14;;;;;;;12.23;2.75;;;16.70;91.80;;;;;;4901726;29;20027;-69
2022/11/01 13:19:02;;;;;;;11.68;2.28;;;16.70;91.70;;;;;;4929608;29;20047;-71
2022/11/01 13:21:56;;;;;;;12.02;2.33;;;16.70;91.80;;;;;;4939313;29;20651;-73
2022/11/01 13:24:26;;;;;;;16.17;2.40;;;16.80;92.10;;;;;;4934633;29;20540;-72
2022/11/01 13:27:17;;;;;;;10.65;2.10;;;16.80;91.30;;;;;;4939866;29;20493;-77
2022/11/01 13:29:48;;;;;;;9.80;2.00;;;16.80;91.70;;;;;;4936859;29;20036;-72
2022/11/01 13:32:31;;;;;;;10.90;3.97;;;16.70;91.60;;;;;;4939999;29;20031;-70
2022/11/01 13:35:15;;;;;;;14.02;3.13;;;16.70;91.90;;;;;;4940193;29;20045;-78
2022/11/01 13:38:13;;;;;;;13.23;2.58;;;16.60;92.10;;;;;;4940201;29;20028;-71
2022/11/01 13:40:55;;;;;;;10.10;1.80;;;16.30;92.50;;;;;;4927889;29;20414;-71
2022/11/01 13:43:26;;;;;;;10.25;1.73;;;16.00;93.40;;;;;;4922660;29;20031;-71
2022/11/01 13:45:57;;;;;;;12.48;1.75;;;15.90;94.00;;;;;;4922187;29;20071;-70
2022/11/01 13:48:29;;;;;;;7.85;1.85;;;15.80;94.40;;;;;;4922611;29;20063;-72
2022/11/01 13:51:18;;;;;;;7.70;1.50;;;15.80;94.60;;;;;;4939750;29;20059;-73
2022/11/01 13:53:53;;;;;;;12.60;2.05;;;15.90;95.20;;;;;;4934198;29;20042;-72
2022/11/01 13:56:55;;;;;;;9.18;1.80;;;15.90;95.00;;;;;;4939580;29;20016;-71
2022/11/01 13:59:35;;;;;;;9.75;1.73;;;15.90;94.90;;;;;;4936964;29;20042;-71
2022/11/01 14:02:22;;;;;;;8.77;1.63;;;15.90;94.80;;;;;;4939926;29;20034;-70
2022/11/01 14:05:01;;;;;;;10.23;1.58;;;15.90;94.80;;;;;;4935983;29;20043;-72
2022/11/01 14:07:34;;;;;;;11.70;1.98;;;15.90;95.00;;;;;;4934769;29;20038;-71
2022/11/01 14:10:00;;;;;;;10.10;1.70;;;15.90;95.00;;;;;;4921983;29;20049;-70
2022/11/01 14:12:42;;;;;;;8.82;1.63;;;15.80;95.30;;;;;;4919497;29;20436;-67
2022/11/01 14:15:15;;;;;;;13.27;2.13;;;15.80;95.40;;;;;;4937522;29;20031;-68
2022/11/01 14:17:55;;;;;;;13.27;2.37;;;15.80;95.50;;;;;;4922150;29;20051;-70
2022/11/01 14:20:24;;;;;;;10.75;2.00;;;15.80;95.50;;;;;;4939473;29;20489;-69
2022/11/01 14:22:49;;;;;;;13.43;2.58;;;15.70;95.90;;;;;;4937189;29;20032;-69
2022/11/01 14:25:15;;;;;;;17.63;3.13;;;15.70;96.00;;;;;;4939405;29;20020;-70
2022/11/01 14:27:43;;;;;;;11.05;2.45;;;15.60;96.00;;;;;;4922003;29;20408;-72
2022/11/01 14:30:19;;;;;;;11.48;2.58;;;15.60;96.30;;;;;;4939289;29;20027;-69
2022/11/01 14:32:59;;;;;;;11.85;2.15;;;15.60;96.00;;;;;;4939616;29;20023;-70
2022/11/01 14:35:34;;;;;;;10.52;2.10;;;15.60;96.40;;;;;;4939682;29;20035;-69
2022/11/01 14:38:05;;;;;;;8.05;1.60;;;15.60;96.20;;;;;;4941666;29;20150;-69
2022/11/01 14:40:41;;;;;;;9.85;2.72;;;15.60;96.30;;;;;;4938226;29;20023;-70
2022/11/01 14:43:24;;;;;;;10.90;3.60;;;15.60;96.00;;;;;;4946332;29;20101;-75
2022/11/01 14:46:19;;;;;;;12.73;3.58;;;15.60;96.00;;;;;;4947845;29;20031;-70
2022/11/01 14:49:09;;;;;;;12.10;3.35;;;15.60;95.90;;;;;;4947528;29;20067;-67
2022/11/01 14:52:06;;;;;;;11.00;3.10;;;15.70;96.10;;;;;;4948781;29;20031;-66
2022/11/01 14:54:42;;;;;;;10.25;2.83;;;15.70;95.70;;;;;;4946429;29;20030;-69
2022/11/01 14:57:29;;;;;;;12.45;3.15;;;15.70;95.40;;;;;;4941456;29;20409;-67
2022/11/01 14:59:57;;;;;;;12.60;2.92;;;15.80;95.60;;;;;;4924994;29;20571;-69
2022/11/01 15:02:24;;;;;;;10.65;3.03;;;15.70;95.00;;;;;;4942710;29;20586;-67
2022/11/01 15:04:57;;;;;;;11.18;2.80;;;15.80;95.30;;;;;;4925494;29;20120;-67
2022/11/01 15:07:28;;;;;;;12.45;2.88;;;15.80;95.30;;;;;;4942658;29;20484;-67
2022/11/01 15:10:00;;;;;;;13.55;3.75;;;15.80;95.40;;;;;;4940938;29;20028;-67
2022/11/01 15:12:42;;;;;;;7.95;2.65;;;15.90;95.40;;;;;;4941787;29;20043;-68
2022/11/01 15:15:30;;;;;;;9.02;2.47;;;15.90;95.20;;;;;;4941751;29;20526;-69
2022/11/01 15:18:01;;;;;;;11.75;3.38;;;15.90;95.20;;;;;;4941649;29;20052;-68
2022/11/01 15:20:36;;;;;;;10.25;2.90;;;16.00;95.50;;;;;;4941929;29;20110;-67
2022/11/01 15:23:06;;;;;;;13.15;3.00;;;16.00;95.40;;;;;;4941697;29;20164;-67
2022/11/01 15:25:32;;;;;;;9.90;2.60;;;16.00;95.40;;;;;;4941816;29;20031;-68
2022/11/01 15:27:58;;;;;;;8.10;2.10;;;16.00;95.60;;;;;;4941799;29;20031;-68
2022/11/01 15:30:29;;;;;;;11.02;2.40;;;16.00;95.50;;;;;;4939438;29;20035;-67
2022/11/01 15:33:20;;;;;;;11.60;2.47;;;16.10;95.40;;;;;;4940965;29;20031;-67
2022/11/01 15:35:58;;;;;;;11.13;2.33;;;16.10;95.20;;;;;;4939812;29;20060;-69
2022/11/01 15:38:24;;;;;;;8.40;2.30;;;16.10;95.00;;;;;;4925605;29;20030;-68
2022/11/01 15:40:51;;;;;;;10.82;3.10;;;16.10;95.00;;;;;;4941977;29;20095;-68
2022/11/01 15:43:22;;;;;;;10.27;2.60;;;16.00;95.40;;;;;;4924850;29;20024;-68
2022/11/01 15:45:53;;;;;;;10.15;2.33;;;16.00;94.90;;;;;;4941682;29;20430;-68
2022/11/01 15:48:23;;;;;;;10.40;2.65;;;15.90;95.00;;;;;;4941925;29;20035;-67
2022/11/01 15:50:52;;;;;;;10.90;3.42;;;15.90;95.00;;;;;;4942096;29;20035;-69
2022/11/01 15:53:23;;;;;;;8.38;2.20;;;15.90;95.00;;;;;;4941272;29;20075;-69
2022/11/01 15:55:56;;;;;;;16.70;5.43;;;15.80;95.10;;;;;;4941856;29;20024;-68
2022/11/01 15:58:29;;;;;;;9.05;2.35;;;15.80;95.10;;;;;;4941845;29;20023;-68
2022/11/01 16:01:13;;;;;;;8.68;2.38;;;15.80;95.20;;;;;;4941254;29;20031;-68
2022/11/01 16:03:56;;;;;;;9.30;2.42;;;15.70;95.10;;;;;;4941483;29;20038;-68
2022/11/01 16:06:26;;;;;;;9.48;2.17;;;15.70;95.30;;;;;;4941204;29;20047;-68
2022/11/01 16:08:59;;;;;;;9.43;2.10;;;15.70;95.20;;;;;;4942480;29;20127;-68
2022/11/01 16:11:29;;;;;;;9.15;1.90;;;15.70;95.10;;;;;;4941498;29;20027;-67
2022/11/01 16:14:06;;;;;;;7.43;1.80;;;15.60;95.10;;;;;;4941502;29;20031;-68
2022/11/01 16:16:55;;;;;;;4.57;1.67;;;15.60;95.20;;;;;;4941166;29;20031;-69
2022/11/01 16:19:25;;;;;;;5.72;1.30;;;15.60;95.30;;;;;;4928293;29;20488;-68
2022/11/01 16:21:51;;;;;;;8.93;1.98;;;15.50;95.30;;;;;;4945680;29;20031;-68
2022/11/01 16:24:20;;;;;;;7.63;1.63;;;15.50;95.30;;;;;;4941516;29;20056;-69
2022/11/01 16:26:57;;;;;;;11.27;2.00;;;15.40;95.40;;;;;;4944957;29;20038;-68
2022/11/01 16:29:49;;;;;;;6.43;1.60;;;15.30;95.50;;;;;;4944448;29;20074;-67
2022/11/01 16:32:19;;;;;;;7.70;1.45;;;15.30;95.50;;;;;;4940837;29;20020;-68
2022/11/01 16:34:45;;;;;;;6.28;1.38;;;15.30;95.70;;;;;;4923848;29;20024;-68
2022/11/01 16:37:22;;;;;;;9.68;1.70;;;15.20;95.70;;;;;;4940805;29;20083;-68
2022/11/01 16:39:48;;;;;;;6.40;1.48;;;15.20;95.60;;;;;;4953827;29;20114;-68
2022/11/01 16:42:15;;;;;;;9.57;2.00;;;15.20;95.70;;;;;;4941071;29;20023;-70
2022/11/01 16:44:41;;;;;;;11.27;2.80;;;15.10;95.90;;;;;;4932563;29;20040;-68
2022/11/01 16:47:11;;;;;;;11.50;3.53;;;15.10;95.90;;;;;;4944373;29;20027;-69
2022/11/01 16:49:48;;;;;;;13.00;3.17;;;15.10;95.90;;;;;;4945411;29;20075;-69
2022/11/01 16:52:13;;;;;;;14.23;3.72;;;15.10;96.00;;;;;;4941057;29;20504;-68
2022/11/01 16:54:39;;;;;;;12.85;2.95;;;15.10;96.20;;;;;;4940717;29;20035;-68
2022/11/01 16:57:14;;;;;;;9.65;2.80;;;15.10;96.20;;;;;;4941934;29;20053;-68
2022/11/01 16:59:40;;;;;;;9.30;2.53;;;15.10;96.30;;;;;;4940035;29;20111;-68
2022/11/01 17:02:22;;;;;;;10.30;2.83;;;15.10;96.20;;;;;;4940616;29;20028;-68
2022/11/01 17:04:51;;;;;;;11.77;4.35;;;15.00;96.10;;;;;;4940442;29;20035;-71
2022/11/01 17:07:17;;;;;;;12.75;3.75;;;15.00;96.20;;;;;;4940499;29;20106;-68
2022/11/01 17:09:43;;;;;;;8.95;2.50;;;15.00;96.20;;;;;;4940403;29;20024;-69